createdAt,value
2022-08-05T00:02:15.985Z,25.30
2022-08-05T00:04:55.613Z,25.30
2022-08-05T00:08:00.898Z,25.30
2022-08-05T00:10:27.252Z,25.20
2022-08-05T00:13:00.922Z,25.20
2022-08-05T00:15:55.476Z,25.20
2022-08-05T00:18:30.443Z,25.10
2022-08-05T00:21:04.197Z,25.10
2022-08-05T00:23:45.833Z,25.10
2022-08-05T00:26:22.640Z,25.10
2022-08-05T00:28:56.505Z,25.10
2022-08-05T00:31:54.148Z,25.10
2022-08-05T00:34:56.931Z,25.00
2022-08-05T00:37:17.923Z,25.00
2022-08-05T00:39:58.066Z,25.00
2022-08-05T00:42:42.357Z,25.00
2022-08-05T00:45:38.848Z,25.00
2022-08-05T00:48:18.479Z,24.90
2022-08-05T00:51:08.733Z,24.90
2022-08-05T00:54:02.843Z,24.90
2022-08-05T00:56:36.823Z,24.90
2022-08-05T00:59:12.838Z,24.90
2022-08-05T01:01:48.851Z,24.90
2022-08-05T01:04:27.024Z,24.90
2022-08-05T01:07:05.249Z,24.80
2022-08-05T01:09:38.892Z,24.80
2022-08-05T01:12:19.207Z,24.80
2022-08-05T01:15:05.076Z,24.80
2022-08-05T01:17:46.689Z,24.70
2022-08-05T01:20:41.707Z,24.70
2022-08-05T01:23:34.995Z,24.70
2022-08-05T01:26:38.339Z,24.70
2022-08-05T01:29:23.146Z,24.60
2022-08-05T01:32:04.330Z,24.60
2022-08-05T01:34:46.808Z,24.50
2022-08-05T01:37:33.881Z,24.50
2022-08-05T01:40:13.752Z,24.50
2022-08-05T01:42:53.977Z,24.50
2022-08-05T01:45:34.981Z,24.50
2022-08-05T01:48:18.593Z,24.40
2022-08-05T01:50:53.775Z,24.40
2022-08-05T01:53:54.900Z,24.30
2022-08-05T01:58:09.706Z,24.30
2022-08-05T01:59:25.000Z,24.30
2022-08-05T02:02:04.525Z,24.20
2022-08-05T02:04:56.267Z,24.20
2022-08-05T02:07:30.642Z,24.20
2022-08-05T02:10:07.835Z,24.20
2022-08-05T02:12:52.711Z,24.10
2022-08-05T02:15:33.504Z,24.10
2022-08-05T02:18:31.820Z,24.10
2022-08-05T02:21:19.774Z,24.10
2022-08-05T02:24:00.850Z,24.00
2022-08-05T02:26:54.914Z,24.00
2022-08-05T02:29:58.710Z,24.00
2022-08-05T02:32:31.478Z,24.00
2022-08-05T02:35:14.464Z,23.90
2022-08-05T02:37:55.151Z,23.90
2022-08-05T02:40:34.111Z,23.90
2022-08-05T02:43:08.288Z,23.80
2022-08-05T02:45:51.393Z,23.80
2022-08-05T02:48:29.784Z,23.70
2022-08-05T02:51:05.842Z,23.70
2022-08-05T02:53:41.014Z,23.70
2022-08-05T02:56:16.024Z,23.70
2022-08-05T02:58:54.271Z,23.70
2022-08-05T03:01:32.489Z,23.60
2022-08-05T03:04:14.035Z,23.60
2022-08-05T03:06:53.881Z,23.60
2022-08-05T03:09:37.492Z,23.60
2022-08-05T03:12:31.013Z,23.50
2022-08-05T03:15:06.896Z,23.50
2022-08-05T03:17:44.750Z,23.50
2022-08-05T03:20:19.626Z,23.50
2022-08-05T03:22:58.044Z,23.50
2022-08-05T03:26:04.932Z,23.40
2022-08-05T03:28:26.846Z,23.40
2022-08-05T15:47:46.754Z,26.00
2022-08-05T15:50:25.208Z,26.10
2022-08-05T15:53:04.078Z,26.10
2022-08-05T15:56:02.724Z,26.10
2022-08-05T15:58:37.226Z,26.00
2022-08-05T16:01:16.453Z,26.10
2022-08-05T16:03:55.080Z,26.10
2022-08-05T16:06:30.028Z,26.10
2022-08-05T16:09:05.559Z,26.10
2022-08-05T16:11:44.464Z,26.10
2022-08-05T16:14:18.644Z,26.00
2022-08-05T16:16:55.655Z,26.00
2022-08-05T16:20:05.525Z,25.90
2022-08-05T16:22:34.419Z,25.80
2022-08-05T16:25:11.234Z,25.80
2022-08-05T16:28:00.076Z,25.70
2022-08-05T16:30:41.475Z,25.60
2022-08-05T16:33:18.079Z,25.50
2022-08-05T16:35:55.178Z,25.40
2022-08-05T16:38:29.966Z,25.40
2022-08-05T16:42:11.915Z,25.30
2022-08-05T16:44:04.398Z,25.20
2022-08-05T16:46:41.160Z,25.20
2022-08-05T16:49:17.237Z,25.10
2022-08-05T16:51:54.912Z,25.10
2022-08-05T16:54:33.137Z,25.10
2022-08-05T16:57:17.944Z,25.10
2022-08-05T17:00:02.990Z,25.10
2022-08-05T17:02:42.230Z,25.10
2022-08-05T17:05:17.105Z,25.20
2022-08-05T17:07:54.747Z,25.20
2022-08-05T17:10:31.085Z,25.20
2022-08-05T17:13:05.724Z,25.20
2022-08-05T17:15:55.600Z,25.30
2022-08-05T17:18:42.930Z,25.30
2022-08-05T17:21:19.999Z,25.30
2022-08-05T17:24:04.636Z,25.30
2022-08-05T17:26:43.043Z,25.30
2022-08-05T17:29:17.368Z,25.30
2022-08-05T17:31:58.868Z,25.30
2022-08-05T17:34:34.885Z,25.30
2022-08-05T17:37:27.247Z,25.30
2022-08-05T17:40:10.284Z,25.30
2022-08-05T17:42:51.155Z,25.30
2022-08-05T17:45:37.967Z,25.30
2022-08-05T17:48:13.780Z,25.20
2022-08-05T17:50:50.258Z,25.20
2022-08-05T17:53:29.777Z,25.20
2022-08-05T17:56:12.237Z,25.10
2022-08-05T17:58:48.532Z,25.10
2022-08-05T18:01:23.882Z,25.00
2022-08-05T18:04:03.539Z,24.90
2022-08-05T18:06:39.372Z,24.90
2022-08-05T18:09:14.635Z,24.80
2022-08-05T18:11:52.618Z,24.70
2022-08-05T18:14:26.884Z,24.70
2022-08-05T18:17:00.953Z,24.60
2022-08-05T18:19:36.116Z,24.50
2022-08-05T18:22:11.495Z,24.40
2022-08-05T18:24:52.075Z,24.30
2022-08-05T18:27:27.740Z,24.30
2022-08-05T18:30:01.924Z,24.30
2022-08-05T18:32:36.125Z,24.20
2022-08-05T18:35:17.533Z,24.10
2022-08-05T18:37:54.880Z,24.10
2022-08-05T18:41:49.991Z,24.00
2022-08-05T18:43:25.824Z,24.00
2022-08-05T18:46:07.108Z,23.90
2022-08-05T18:48:44.176Z,23.80
2022-08-05T18:52:06.151Z,23.80
2022-08-05T18:54:32.890Z,23.50
2022-08-05T18:57:15.515Z,23.70
2022-08-05T19:00:01.805Z,23.60
2022-08-05T19:02:38.699Z,23.60
2022-08-05T19:06:11.915Z,23.50
2022-08-05T19:08:13.425Z,23.50
2022-08-05T19:10:49.854Z,23.40
2022-08-05T19:13:24.145Z,23.30
2022-08-05T19:16:24.382Z,23.30
2022-08-05T19:19:00.160Z,23.20
2022-08-05T19:21:36.080Z,23.20
2022-08-05T19:24:12.714Z,23.10
2022-08-05T19:26:54.803Z,23.00
2022-08-05T19:29:36.380Z,23.00
2022-08-05T19:32:12.547Z,22.90
2022-08-05T19:34:55.230Z,22.90
2022-08-05T19:37:47.259Z,22.80
2022-08-05T19:40:25.259Z,22.80
2022-08-05T19:43:05.600Z,22.70
2022-08-05T19:45:54.327Z,22.70
2022-08-05T19:48:30.405Z,22.60
2022-08-05T19:51:05.569Z,22.60
2022-08-05T19:54:04.075Z,22.50
2022-08-05T19:56:38.579Z,22.50
2022-08-05T19:59:51.663Z,22.40
2022-08-05T20:02:08.574Z,22.40
2022-08-05T20:04:45.740Z,22.30
2022-08-05T20:07:46.801Z,22.30
2022-08-05T20:10:14.832Z,22.20
2022-08-05T20:12:50.119Z,22.20
2022-08-05T20:15:51.612Z,22.10
2022-08-05T20:18:34.071Z,22.00
2022-08-05T20:21:11.248Z,22.00
2022-08-05T20:23:51.161Z,21.90
2022-08-05T20:26:28.456Z,21.90
2022-08-05T20:29:02.479Z,21.90
2022-08-05T20:31:50.428Z,21.80
2022-08-05T20:34:27.949Z,21.70
2022-08-05T20:37:03.932Z,21.70
2022-08-05T20:39:38.778Z,21.60
2022-08-05T20:42:14.132Z,21.60
2022-08-05T20:44:55.762Z,21.60
2022-08-05T20:47:31.797Z,21.50
2022-08-05T20:50:08.363Z,21.50
2022-08-05T20:52:46.906Z,21.40
2022-08-05T20:56:07.292Z,21.40
2022-08-05T20:58:17.134Z,21.30
2022-08-05T21:00:54.499Z,21.30
2022-08-05T21:03:34.397Z,21.20
2022-08-05T21:06:27.541Z,21.10
2022-08-05T21:09:06.101Z,21.10
2022-08-05T21:12:07.388Z,21.10
2022-08-05T21:14:35.567Z,21.00
2022-08-05T21:17:09.820Z,21.00
2022-08-05T21:19:47.851Z,21.00
2022-08-05T21:22:26.927Z,20.90
2022-08-05T21:25:03.949Z,20.90
2022-08-05T21:27:40.359Z,20.90
2022-08-05T21:30:26.868Z,20.80
2022-08-05T21:33:03.242Z,20.80
2022-08-05T21:35:55.372Z,20.80
2022-08-05T21:38:35.464Z,20.70
2022-08-05T21:41:15.002Z,20.70
2022-08-05T21:44:03.717Z,20.70
2022-08-05T21:46:39.167Z,20.60
2022-08-05T21:49:56.623Z,20.60
2022-08-05T21:52:22.948Z,20.50
2022-08-05T21:55:07.039Z,20.50
2022-08-05T21:57:43.026Z,20.50
2022-08-05T22:00:18.632Z,20.40
2022-08-05T22:02:53.666Z,20.40
2022-08-05T22:05:27.670Z,20.30
2022-08-05T22:08:02.432Z,20.30
2022-08-05T22:10:36.876Z,20.20
2022-08-05T22:14:18.239Z,20.20
2022-08-05T22:16:32.150Z,20.20
2022-08-05T22:19:02.542Z,20.10
2022-08-05T22:21:36.501Z,20.10
2022-08-05T22:24:40.284Z,20.00
2022-08-05T22:28:08.943Z,20.00
2022-08-05T22:30:44.210Z,19.90
2022-08-05T22:33:57.134Z,19.90
2022-08-05T22:36:25.231Z,19.90
2022-08-05T22:39:04.269Z,19.80
2022-08-05T22:42:09.443Z,19.80
2022-08-05T22:44:38.437Z,19.70
2022-08-05T22:47:14.318Z,19.70
2022-08-05T22:50:19.893Z,19.70
2022-08-05T22:52:55.372Z,19.70
2022-08-05T22:55:29.565Z,19.60
2022-08-05T22:58:28.407Z,19.60
2022-08-05T23:01:03.046Z,19.50
2022-08-05T23:03:57.921Z,19.60
2022-08-05T23:06:34.494Z,19.50
2022-08-05T23:09:27.049Z,19.20
2022-08-05T23:12:02.467Z,19.40
2022-08-05T23:14:36.678Z,19.40
2022-08-05T23:17:32.728Z,19.30
2022-08-05T23:20:17.550Z,19.30
2022-08-05T23:22:55.682Z,19.30
2022-08-05T23:25:53.524Z,19.20
2022-08-05T23:28:29.498Z,19.20
2022-08-05T23:31:16.883Z,19.20
2022-08-05T23:34:04.446Z,19.10
2022-08-05T23:36:44.523Z,19.10
2022-08-05T23:39:23.714Z,19.10
2022-08-05T23:42:14.239Z,19.00
2022-08-05T23:44:54.535Z,19.00
2022-08-05T23:47:33.643Z,19.00
2022-08-05T23:50:09.940Z,18.90
2022-08-05T23:52:49.724Z,18.90
2022-08-05T23:55:31.165Z,18.90
2022-08-05T23:58:31.821Z,18.80
